תחנות METAR סמוכות

 

LLBG - Ben-Gurion(Civ/M, Israel
Distance from station: 'מ 83km
עודכן: 16/09/2019 11:50
מעונן חלקית
מעונן חלקית
 רוח מ 'מ
רוח: 'מ 13 km/h
טמפרטורה: 30°C
עומס חום: 31°C
נקודת הטל: 19°C
לחות: 52%
ברומטר: 1012 hPa
עננים: מעונן חלקית
ראות: 10 km
Cloud details: מעונן חלקית 1219 m
2019/09/16 08:50 LLBG 160850Z 26007KT 9999 SCT040 30/19 Q1012 NOSIG
LLSD - Sde Dov Airport, Israel
Distance from station: 'מ 75km
עודכן: 30/06/2019 23:50
לא מעודכן
מעונן חלקית
מעונן חלקית
 רוח מ משתנה
רוח: משתנה 6 km/h
טמפרטורה: 27°C
עומס חום: 30°C
נקודת הטל: 23°C
לחות: 79%
ברומטר: 1007 hPa
עננים: מעונן חלקית
ראות: 10 km
Cloud details: מעונן חלקית 518 m
2019/06/30 20:50 LLSD 302050Z VRB03KT 9999 SCT017 27/23 Q1007
 
LLHA - Haifa (isr-Afb), Israel
Distance from station: 'צמ 129km
עודכן: 16/09/2019 11:50
מעונן חלקית
מעונן חלקית
 רוח מ 'מדמ
רוח: 'מדמ 17 km/h
טמפרטורה: 30°C
עומס חום: 32°C
נקודת הטל: 20°C
לחות: 55%
ברומטר: 1011 hPa
עננים: מעונן חלקית
ראות: 10 km
Cloud details: מעונן חלקית 1189 m
2019/09/16 08:50 LLHA 160850Z 25009KT 220V280 9999 SCT039 30/20 Q1011
LLIB - Ben Ya Akov, Israel
Distance from station: 'צמ 183km
עודכן: 16/09/2019 11:50
מעונן חלקית
מעונן חלקית
 רוח מ 'דדמ
רוח: 'דדמ 15 km/h
טמפרטורה: 30°C
עומס חום: 31°C
נקודת הטל: 17°C
לחות: 46%
ברומטר: 1013 hPa
עננים: מעונן חלקית
ראות: 10 km
Cloud details: מעונן חלקית 762 m
2019/09/16 08:50 LLIB 160850Z 20008KT 160V240 9999 SCT025 30/17 Q1013
 
LLOV - Ovda (isr-Afb/Ci, Israel
Distance from station: 'דדמ 246km
עודכן: 31/03/2019 22:50
לא מעודכן
בהיר
בהיר
 רוח מ 'מדמ
רוח: 'מדמ 13 km/h
טמפרטורה: 12°C
נקודת הטל: 0°C
לחות: 44%
ברומטר: 1012 hPa
סיכום: בהיר
ראות: greater than 10 km
2019/03/31 19:50 LLOV 311950Z 24007KT CAVOK 12/00 Q1012
LLET - Elat/J. Hozman(A, Israel
Distance from station: 'דדמ 287km
עודכן: 18/03/2019 17:50
לא מעודכן
בהיר
בהיר
 רוח מ 'צצמ
רוח: 'צצמ 30 km/h
טמפרטורה: 24°C
נקודת הטל: -1°C
לחות: 19%
ברומטר: 1016 hPa
סיכום: בהיר
ראות: greater than 10 km
2019/03/18 15:50 LLET 181550Z 02016KT CAVOK 24/M01 Q1016
 
LCLK - Larnaca/Larnax A, Cyprus
Distance from station: 'צ 321km
עודכן: 16/09/2019 12:00
Few Clouds
Few Clouds
 רוח מ 'דדמ
רוח: 'דדמ 17 km/h
טמפרטורה: 30°C
עומס חום: 31°C
נקודת הטל: 19°C
לחות: 52%
ברומטר: 1011 hPa
עננים: Few Clouds
ראות: 10 km
Cloud details: Few Clouds 762 m
2019/09/16 09:00 LCLK 160900Z 16009KT 140V200 9999 FEW025 30/19 Q1011 NOSIG